sensor_id;sensor_type;location;lat;lon;timestamp;P1;durP1;ratioP1;P2;durP2;ratioP2
33716;SDS011;20046;50.746;7.072;2023-03-05T10:19:34;9.93;;;3.95;;
33716;SDS011;20046;50.746;7.072;2023-03-05T10:22:24;15.52;;;4.50;;
33716;SDS011;20046;50.746;7.072;2023-03-05T10:27:36;8.15;;;4.22;;
33716;SDS011;20046;50.746;7.072;2023-03-05T10:30:17;14.05;;;3.85;;
33716;SDS011;20046;50.746;7.072;2023-03-05T10:32:54;11.95;;;4.07;;
33716;SDS011;20046;50.746;7.072;2023-03-05T10:40:45;10.43;;;4.20;;
33716;SDS011;20046;50.746;7.072;2023-03-05T10:45:47;11.23;;;3.10;;
33716;SDS011;20046;50.746;7.072;2023-03-05T10:51:11;8.48;;;3.50;;
33716;SDS011;20046;50.746;7.072;2023-03-05T10:54:04;11.82;;;3.92;;
33716;SDS011;20046;50.746;7.072;2023-03-05T10:56:49;9.02;;;3.22;;
33716;SDS011;20046;50.746;7.072;2023-03-05T10:59:15;10.88;;;3.08;;
33716;SDS011;20046;50.746;7.072;2023-03-05T11:01:41;13.23;;;3.38;;
33716;SDS011;20046;50.746;7.072;2023-03-05T11:04:25;9.25;;;2.92;;
33716;SDS011;20046;50.746;7.072;2023-03-05T11:06:53;8.23;;;2.97;;
33716;SDS011;20046;50.746;7.072;2023-03-05T11:09:22;11.13;;;3.08;;
33716;SDS011;20046;50.746;7.072;2023-03-05T11:14:26;8.85;;;3.63;;
33716;SDS011;20046;50.746;7.072;2023-03-05T11:16:57;12.88;;;3.90;;
33716;SDS011;20046;50.746;7.072;2023-03-05T11:19:25;6.20;;;3.63;;
33716;SDS011;20046;50.746;7.072;2023-03-05T11:24:39;5.63;;;3.92;;
33716;SDS011;20046;50.746;7.072;2023-03-05T11:30:24;11.80;;;5.10;;
33716;SDS011;20046;50.746;7.072;2023-03-05T11:33:15;10.32;;;5.03;;
33716;SDS011;20046;50.746;7.072;2023-03-05T11:35:46;9.32;;;4.95;;
33716;SDS011;20046;50.746;7.072;2023-03-05T11:38:26;8.48;;;4.45;;
33716;SDS011;20046;50.746;7.072;2023-03-05T11:40:53;8.70;;;4.80;;
33716;SDS011;20046;50.746;7.072;2023-03-05T11:43:21;10.00;;;4.70;;
33716;SDS011;20046;50.746;7.072;2023-03-05T11:45:49;8.38;;;5.10;;
33716;SDS011;20046;50.746;7.072;2023-03-05T11:48:24;10.30;;;5.13;;
33716;SDS011;20046;50.746;7.072;2023-03-05T11:50:55;16.70;;;7.07;;
33716;SDS011;20046;50.746;7.072;2023-03-05T11:53:23;9.98;;;6.05;;
33716;SDS011;20046;50.746;7.072;2023-03-05T11:58:28;16.67;;;7.75;;
33716;SDS011;20046;50.746;7.072;2023-03-05T12:00:59;15.45;;;7.57;;
33716;SDS011;20046;50.746;7.072;2023-03-05T12:03:32;15.48;;;8.57;;
33716;SDS011;20046;50.746;7.072;2023-03-05T12:06:17;11.90;;;8.23;;
33716;SDS011;20046;50.746;7.072;2023-03-05T12:11:51;15.55;;;9.07;;
33716;SDS011;20046;50.746;7.072;2023-03-05T12:17:31;13.10;;;7.93;;
33716;SDS011;20046;50.746;7.072;2023-03-05T12:20:04;15.13;;;8.50;;
33716;SDS011;20046;50.746;7.072;2023-03-05T12:22:37;14.23;;;7.72;;
33716;SDS011;20046;50.746;7.072;2023-03-05T12:25:23;12.43;;;7.47;;
33716;SDS011;20046;50.746;7.072;2023-03-05T12:27:52;14.43;;;7.10;;
33716;SDS011;20046;50.746;7.072;2023-03-05T12:32:58;12.88;;;7.00;;
33716;SDS011;20046;50.746;7.072;2023-03-05T12:35:29;11.65;;;7.90;;
33716;SDS011;20046;50.746;7.072;2023-03-05T12:38:02;15.55;;;7.32;;
33716;SDS011;20046;50.746;7.072;2023-03-05T12:40:31;14.55;;;7.32;;
33716;SDS011;20046;50.746;7.072;2023-03-05T12:42:59;13.05;;;7.57;;
33716;SDS011;20046;50.746;7.072;2023-03-05T12:45:30;16.35;;;8.70;;
33716;SDS011;20046;50.746;7.072;2023-03-05T12:50:52;12.20;;;8.13;;
33716;SDS011;20046;50.746;7.072;2023-03-05T12:53:22;16.35;;;8.80;;
33716;SDS011;20046;50.746;7.072;2023-03-05T12:58:44;14.90;;;8.20;;
33716;SDS011;20046;50.746;7.072;2023-03-05T13:01:28;16.48;;;9.25;;
33716;SDS011;20046;50.746;7.072;2023-03-05T13:04:04;18.95;;;8.98;;
33716;SDS011;20046;50.746;7.072;2023-03-05T13:06:57;16.40;;;8.97;;
33716;SDS011;20046;50.746;7.072;2023-03-05T13:09:25;14.85;;;8.77;;
33716;SDS011;20046;50.746;7.072;2023-03-05T13:11:55;12.15;;;7.88;;
33716;SDS011;20046;50.746;7.072;2023-03-05T13:14:43;14.68;;;9.07;;
33716;SDS011;20046;50.746;7.072;2023-03-05T13:25:55;14.77;;;7.60;;
33716;SDS011;20046;50.746;7.072;2023-03-05T13:28:39;15.55;;;8.15;;
33716;SDS011;20046;50.746;7.072;2023-03-05T13:31:16;14.82;;;7.82;;
33716;SDS011;20046;50.746;7.072;2023-03-05T13:33:49;14.73;;;9.15;;
33716;SDS011;20046;50.746;7.072;2023-03-05T13:36:21;14.77;;;8.63;;
33716;SDS011;20046;50.746;7.072;2023-03-05T13:38:49;14.43;;;9.05;;
33716;SDS011;20046;50.746;7.072;2023-03-05T13:48:49;15.40;;;8.73;;
33716;SDS011;20046;50.746;7.072;2023-03-05T13:51:15;15.15;;;9.05;;
33716;SDS011;20046;50.746;7.072;2023-03-05T13:53:40;14.85;;;7.80;;
33716;SDS011;20046;50.746;7.072;2023-03-05T13:56:12;20.30;;;8.40;;
33716;SDS011;20046;50.746;7.072;2023-03-05T14:01:26;16.13;;;9.00;;
33716;SDS011;20046;50.746;7.072;2023-03-05T14:03:53;17.40;;;9.70;;
33716;SDS011;20046;50.746;7.072;2023-03-05T14:06:56;15.00;;;9.20;;
33716;SDS011;20046;50.746;7.072;2023-03-05T14:09:41;18.40;;;9.82;;
33716;SDS011;20046;50.746;7.072;2023-03-05T14:12:22;18.58;;;8.88;;
33716;SDS011;20046;50.746;7.072;2023-03-05T14:14:58;16.67;;;9.73;;
33716;SDS011;20046;50.746;7.072;2023-03-05T14:19:52;16.38;;;8.52;;
33716;SDS011;20046;50.746;7.072;2023-03-05T14:22:52;16.30;;;9.18;;
33716;SDS011;20046;50.746;7.072;2023-03-05T14:25:28;16.38;;;8.93;;
33716;SDS011;20046;50.746;7.072;2023-03-05T14:27:54;18.27;;;10.93;;
33716;SDS011;20046;50.746;7.072;2023-03-05T14:30:22;27.55;;;13.85;;
33716;SDS011;20046;50.746;7.072;2023-03-05T14:32:48;25.63;;;12.25;;
33716;SDS011;20046;50.746;7.072;2023-03-05T14:35:22;16.02;;;9.43;;
33716;SDS011;20046;50.746;7.072;2023-03-05T14:37:51;12.50;;;9.00;;
33716;SDS011;20046;50.746;7.072;2023-03-05T14:40:20;19.42;;;10.15;;
33716;SDS011;20046;50.746;7.072;2023-03-05T14:45:20;14.10;;;8.98;;
33716;SDS011;20046;50.746;7.072;2023-03-05T14:47:46;12.75;;;9.00;;
33716;SDS011;20046;50.746;7.072;2023-03-05T14:50:15;17.20;;;8.93;;
33716;SDS011;20046;50.746;7.072;2023-03-05T14:52:45;15.98;;;8.85;;
33716;SDS011;20046;50.746;7.072;2023-03-05T14:55:16;16.92;;;9.25;;
33716;SDS011;20046;50.746;7.072;2023-03-05T14:57:44;20.63;;;9.00;;
33716;SDS011;20046;50.746;7.072;2023-03-05T15:00:20;17.73;;;9.32;;
33716;SDS011;20046;50.746;7.072;2023-03-05T15:02:48;15.18;;;7.72;;
33716;SDS011;20046;50.746;7.072;2023-03-05T15:05:14;17.05;;;9.18;;
33716;SDS011;20046;50.746;7.072;2023-03-05T15:07:40;15.80;;;8.63;;
33716;SDS011;20046;50.746;7.072;2023-03-05T15:10:06;14.50;;;8.93;;
33716;SDS011;20046;50.746;7.072;2023-03-05T15:12:32;14.30;;;8.98;;
33716;SDS011;20046;50.746;7.072;2023-03-05T15:14:58;17.73;;;9.38;;
33716;SDS011;20046;50.746;7.072;2023-03-05T15:17:34;14.32;;;9.20;;
33716;SDS011;20046;50.746;7.072;2023-03-05T15:20:03;15.05;;;8.38;;
33716;SDS011;20046;50.746;7.072;2023-03-05T15:22:34;18.58;;;8.88;;
33716;SDS011;20046;50.746;7.072;2023-03-05T15:25:01;20.48;;;9.07;;
33716;SDS011;20046;50.746;7.072;2023-03-05T15:27:26;14.90;;;8.38;;
33716;SDS011;20046;50.746;7.072;2023-03-05T15:29:52;17.73;;;8.63;;
33716;SDS011;20046;50.746;7.072;2023-03-05T15:32:17;16.67;;;8.55;;
33716;SDS011;20046;50.746;7.072;2023-03-05T15:34:43;17.75;;;8.77;;
33716;SDS011;20046;50.746;7.072;2023-03-05T15:37:09;10.70;;;7.95;;
33716;SDS011;20046;50.746;7.072;2023-03-05T15:39:34;15.93;;;8.00;;
33716;SDS011;20046;50.746;7.072;2023-03-05T15:42:00;12.98;;;9.13;;
33716;SDS011;20046;50.746;7.072;2023-03-05T15:44:26;16.63;;;8.50;;
33716;SDS011;20046;50.746;7.072;2023-03-05T15:46:51;17.63;;;9.05;;
33716;SDS011;20046;50.746;7.072;2023-03-05T15:49:18;15.80;;;8.23;;
33716;SDS011;20046;50.746;7.072;2023-03-05T15:51:45;14.13;;;8.60;;
33716;SDS011;20046;50.746;7.072;2023-03-05T15:54:10;13.68;;;8.50;;
33716;SDS011;20046;50.746;7.072;2023-03-05T15:56:36;16.67;;;9.00;;
33716;SDS011;20046;50.746;7.072;2023-03-05T15:59:02;13.57;;;8.13;;
33716;SDS011;20046;50.746;7.072;2023-03-05T16:01:27;14.15;;;7.32;;
33716;SDS011;20046;50.746;7.072;2023-03-05T16:03:53;10.48;;;6.65;;
33716;SDS011;20046;50.746;7.072;2023-03-05T16:06:20;10.82;;;6.45;;
33716;SDS011;20046;50.746;7.072;2023-03-05T16:08:48;12.55;;;6.60;;
33716;SDS011;20046;50.746;7.072;2023-03-05T16:11:16;16.75;;;6.43;;
33716;SDS011;20046;50.746;7.072;2023-03-05T16:13:42;17.70;;;6.55;;
33716;SDS011;20046;50.746;7.072;2023-03-05T16:16:08;14.88;;;6.72;;
33716;SDS011;20046;50.746;7.072;2023-03-05T16:18:36;9.35;;;6.30;;
33716;SDS011;20046;50.746;7.072;2023-03-05T16:21:06;9.73;;;6.65;;
33716;SDS011;20046;50.746;7.072;2023-03-05T16:23:31;12.70;;;6.70;;
33716;SDS011;20046;50.746;7.072;2023-03-05T16:25:57;19.35;;;7.57;;
33716;SDS011;20046;50.746;7.072;2023-03-05T16:28:22;16.67;;;8.20;;
33716;SDS011;20046;50.746;7.072;2023-03-05T16:30:52;16.23;;;8.30;;
33716;SDS011;20046;50.746;7.072;2023-03-05T16:33:18;18.40;;;10.27;;
33716;SDS011;20046;50.746;7.072;2023-03-05T16:35:43;22.02;;;11.18;;
33716;SDS011;20046;50.746;7.072;2023-03-05T16:38:09;28.15;;;9.93;;
33716;SDS011;20046;50.746;7.072;2023-03-05T16:40:35;19.05;;;10.75;;
33716;SDS011;20046;50.746;7.072;2023-03-05T16:43:02;12.55;;;8.43;;
33716;SDS011;20046;50.746;7.072;2023-03-05T16:45:28;15.98;;;9.43;;
33716;SDS011;20046;50.746;7.072;2023-03-05T16:47:53;20.90;;;11.07;;
33716;SDS011;20046;50.746;7.072;2023-03-05T16:50:19;24.77;;;12.45;;
33716;SDS011;20046;50.746;7.072;2023-03-05T16:52:45;20.77;;;10.70;;
33716;SDS011;20046;50.746;7.072;2023-03-05T16:55:10;18.38;;;10.02;;
33716;SDS011;20046;50.746;7.072;2023-03-05T16:57:39;18.40;;;10.65;;
33716;SDS011;20046;50.746;7.072;2023-03-05T17:00:05;14.85;;;10.07;;
33716;SDS011;20046;50.746;7.072;2023-03-05T17:02:33;16.42;;;10.00;;
33716;SDS011;20046;50.746;7.072;2023-03-05T17:04:58;14.63;;;9.45;;
33716;SDS011;20046;50.746;7.072;2023-03-05T17:07:24;18.50;;;9.60;;
33716;SDS011;20046;50.746;7.072;2023-03-05T17:09:50;13.52;;;8.73;;
33716;SDS011;20046;50.746;7.072;2023-03-05T17:12:17;14.38;;;9.35;;
33716;SDS011;20046;50.746;7.072;2023-03-05T17:14:43;16.52;;;9.82;;
33716;SDS011;20046;50.746;7.072;2023-03-05T17:17:09;15.52;;;9.20;;
33716;SDS011;20046;50.746;7.072;2023-03-05T17:19:35;17.40;;;9.85;;
33716;SDS011;20046;50.746;7.072;2023-03-05T17:22:01;14.60;;;9.45;;
33716;SDS011;20046;50.746;7.072;2023-03-05T17:24:27;14.38;;;9.15;;
33716;SDS011;20046;50.746;7.072;2023-03-05T17:26:54;16.60;;;10.45;;
33716;SDS011;20046;50.746;7.072;2023-03-05T17:29:19;16.85;;;9.90;;
33716;SDS011;20046;50.746;7.072;2023-03-05T17:31:47;15.98;;;9.63;;
33716;SDS011;20046;50.746;7.072;2023-03-05T17:34:14;16.42;;;10.57;;
33716;SDS011;20046;50.746;7.072;2023-03-05T17:36:40;17.23;;;10.73;;
33716;SDS011;20046;50.746;7.072;2023-03-05T17:39:06;16.13;;;10.10;;
33716;SDS011;20046;50.746;7.072;2023-03-05T17:41:32;17.90;;;10.57;;
33716;SDS011;20046;50.746;7.072;2023-03-05T17:43:58;18.85;;;11.43;;
33716;SDS011;20046;50.746;7.072;2023-03-05T17:46:23;19.63;;;10.25;;
33716;SDS011;20046;50.746;7.072;2023-03-05T17:48:49;17.75;;;11.13;;
33716;SDS011;20046;50.746;7.072;2023-03-05T17:51:14;20.42;;;11.93;;
33716;SDS011;20046;50.746;7.072;2023-03-05T17:53:40;25.45;;;14.13;;
33716;SDS011;20046;50.746;7.072;2023-03-05T17:56:08;47.53;;;17.85;;
33716;SDS011;20046;50.746;7.072;2023-03-05T17:58:35;60.78;;;20.52;;
33716;SDS011;20046;50.746;7.072;2023-03-05T18:01:01;41.47;;;17.60;;
33716;SDS011;20046;50.746;7.072;2023-03-05T18:03:28;39.42;;;18.90;;
33716;SDS011;20046;50.746;7.072;2023-03-05T18:05:53;32.65;;;15.30;;
33716;SDS011;20046;50.746;7.072;2023-03-05T18:08:19;30.35;;;16.10;;
33716;SDS011;20046;50.746;7.072;2023-03-05T18:10:44;33.55;;;17.83;;
33716;SDS011;20046;50.746;7.072;2023-03-05T18:13:10;26.58;;;14.70;;
33716;SDS011;20046;50.746;7.072;2023-03-05T18:15:36;35.85;;;17.50;;
33716;SDS011;20046;50.746;7.072;2023-03-05T18:18:04;42.33;;;18.63;;
33716;SDS011;20046;50.746;7.072;2023-03-05T18:20:32;41.90;;;19.25;;
33716;SDS011;20046;50.746;7.072;2023-03-05T18:23:00;31.35;;;16.40;;
33716;SDS011;20046;50.746;7.072;2023-03-05T18:25:27;42.20;;;18.63;;
33716;SDS011;20046;50.746;7.072;2023-03-05T18:28:00;60.97;;;22.45;;
33716;SDS011;20046;50.746;7.072;2023-03-05T18:30:33;41.55;;;18.60;;
33716;SDS011;20046;50.746;7.072;2023-03-05T18:33:00;32.60;;;17.80;;
33716;SDS011;20046;50.746;7.072;2023-03-05T18:35:26;33.83;;;17.75;;
33716;SDS011;20046;50.746;7.072;2023-03-05T18:37:56;34.53;;;18.05;;
33716;SDS011;20046;50.746;7.072;2023-03-05T18:40:22;40.90;;;18.95;;
33716;SDS011;20046;50.746;7.072;2023-03-05T18:42:50;49.40;;;21.48;;
33716;SDS011;20046;50.746;7.072;2023-03-05T18:45:16;52.30;;;24.63;;
33716;SDS011;20046;50.746;7.072;2023-03-05T18:47:43;37.67;;;18.38;;
33716;SDS011;20046;50.746;7.072;2023-03-05T18:50:11;31.13;;;16.92;;
33716;SDS011;20046;50.746;7.072;2023-03-05T18:52:42;31.23;;;17.60;;
33716;SDS011;20046;50.746;7.072;2023-03-05T18:55:15;34.67;;;18.02;;
33716;SDS011;20046;50.746;7.072;2023-03-05T18:57:43;33.63;;;18.35;;
33716;SDS011;20046;50.746;7.072;2023-03-05T19:00:10;35.97;;;17.75;;
33716;SDS011;20046;50.746;7.072;2023-03-05T19:02:38;28.35;;;17.33;;
33716;SDS011;20046;50.746;7.072;2023-03-05T19:05:03;31.58;;;16.52;;
33716;SDS011;20046;50.746;7.072;2023-03-05T19:07:29;30.52;;;17.08;;
33716;SDS011;20046;50.746;7.072;2023-03-05T19:09:57;39.70;;;21.58;;
33716;SDS011;20046;50.746;7.072;2023-03-05T19:12:28;33.05;;;17.77;;
33716;SDS011;20046;50.746;7.072;2023-03-05T19:14:59;34.80;;;20.83;;
33716;SDS011;20046;50.746;7.072;2023-03-05T19:17:26;34.55;;;19.25;;
33716;SDS011;20046;50.746;7.072;2023-03-05T19:19:53;33.50;;;18.52;;
33716;SDS011;20046;50.746;7.072;2023-03-05T19:22:21;45.33;;;22.95;;
33716;SDS011;20046;50.746;7.072;2023-03-05T19:24:47;25.95;;;15.15;;
33716;SDS011;20046;50.746;7.072;2023-03-05T19:27:13;37.28;;;18.27;;
33716;SDS011;20046;50.746;7.072;2023-03-05T19:29:39;31.75;;;16.80;;
33716;SDS011;20046;50.746;7.072;2023-03-05T19:32:06;33.80;;;17.33;;
33716;SDS011;20046;50.746;7.072;2023-03-05T19:34:34;53.83;;;25.95;;
33716;SDS011;20046;50.746;7.072;2023-03-05T19:37:00;48.70;;;21.77;;
33716;SDS011;20046;50.746;7.072;2023-03-05T19:39:26;31.50;;;15.45;;
33716;SDS011;20046;50.746;7.072;2023-03-05T19:41:52;31.48;;;14.63;;
33716;SDS011;20046;50.746;7.072;2023-03-05T19:44:18;33.45;;;14.68;;
33716;SDS011;20046;50.746;7.072;2023-03-05T19:46:44;38.45;;;17.63;;
33716;SDS011;20046;50.746;7.072;2023-03-05T19:49:12;35.38;;;16.95;;
33716;SDS011;20046;50.746;7.072;2023-03-05T19:51:39;26.40;;;13.13;;
33716;SDS011;20046;50.746;7.072;2023-03-05T19:54:06;23.48;;;12.48;;
33716;SDS011;20046;50.746;7.072;2023-03-05T19:56:32;19.05;;;11.05;;
33716;SDS011;20046;50.746;7.072;2023-03-05T19:58:57;37.08;;;15.85;;
33716;SDS011;20046;50.746;7.072;2023-03-05T20:01:24;25.50;;;11.98;;
33716;SDS011;20046;50.746;7.072;2023-03-05T20:03:54;21.70;;;11.60;;
33716;SDS011;20046;50.746;7.072;2023-03-05T20:06:22;28.60;;;13.82;;
33716;SDS011;20046;50.746;7.072;2023-03-05T20:08:48;44.67;;;21.77;;
33716;SDS011;20046;50.746;7.072;2023-03-05T20:11:15;22.38;;;12.38;;
33716;SDS011;20046;50.746;7.072;2023-03-05T20:13:41;19.50;;;11.13;;
33716;SDS011;20046;50.746;7.072;2023-03-05T20:16:14;21.95;;;13.20;;
33716;SDS011;20046;50.746;7.072;2023-03-05T20:18:40;21.13;;;11.98;;
33716;SDS011;20046;50.746;7.072;2023-03-05T20:21:06;20.17;;;11.80;;
33716;SDS011;20046;50.746;7.072;2023-03-05T20:23:32;20.33;;;11.40;;
33716;SDS011;20046;50.746;7.072;2023-03-05T20:25:57;23.27;;;13.27;;
33716;SDS011;20046;50.746;7.072;2023-03-05T20:28:23;20.05;;;12.60;;
33716;SDS011;20046;50.746;7.072;2023-03-05T20:30:53;22.88;;;12.32;;
33716;SDS011;20046;50.746;7.072;2023-03-05T20:33:20;20.23;;;12.32;;
33716;SDS011;20046;50.746;7.072;2023-03-05T20:35:47;22.02;;;12.45;;
33716;SDS011;20046;50.746;7.072;2023-03-05T20:40:47;22.33;;;12.90;;
33716;SDS011;20046;50.746;7.072;2023-03-05T20:43:15;23.63;;;13.55;;
33716;SDS011;20046;50.746;7.072;2023-03-05T20:45:41;32.40;;;17.67;;
33716;SDS011;20046;50.746;7.072;2023-03-05T20:48:07;25.67;;;13.73;;
33716;SDS011;20046;50.746;7.072;2023-03-05T20:50:32;21.55;;;13.23;;
33716;SDS011;20046;50.746;7.072;2023-03-05T20:52:59;23.80;;;13.15;;
33716;SDS011;20046;50.746;7.072;2023-03-05T20:55:24;22.83;;;13.45;;
33716;SDS011;20046;50.746;7.072;2023-03-05T20:57:56;19.45;;;11.75;;
33716;SDS011;20046;50.746;7.072;2023-03-05T21:00:22;22.85;;;12.63;;
33716;SDS011;20046;50.746;7.072;2023-03-05T21:02:49;25.92;;;13.52;;
33716;SDS011;20046;50.746;7.072;2023-03-05T21:05:19;25.88;;;13.68;;
33716;SDS011;20046;50.746;7.072;2023-03-05T21:07:46;24.60;;;13.25;;
33716;SDS011;20046;50.746;7.072;2023-03-05T21:10:12;25.42;;;15.05;;
33716;SDS011;20046;50.746;7.072;2023-03-05T21:12:40;28.08;;;14.57;;
33716;SDS011;20046;50.746;7.072;2023-03-05T21:15:10;22.77;;;13.85;;
33716;SDS011;20046;50.746;7.072;2023-03-05T21:17:37;28.35;;;14.75;;
33716;SDS011;20046;50.746;7.072;2023-03-05T21:20:03;23.23;;;13.80;;
33716;SDS011;20046;50.746;7.072;2023-03-05T21:22:31;25.25;;;14.43;;
33716;SDS011;20046;50.746;7.072;2023-03-05T21:24:57;23.45;;;13.68;;
33716;SDS011;20046;50.746;7.072;2023-03-05T21:27:39;29.00;;;14.65;;
33716;SDS011;20046;50.746;7.072;2023-03-05T21:30:05;27.73;;;15.57;;
33716;SDS011;20046;50.746;7.072;2023-03-05T21:32:31;25.52;;;13.68;;
33716;SDS011;20046;50.746;7.072;2023-03-05T21:34:58;27.75;;;14.10;;
33716;SDS011;20046;50.746;7.072;2023-03-05T21:37:23;25.27;;;14.45;;
33716;SDS011;20046;50.746;7.072;2023-03-05T21:39:49;26.55;;;14.32;;
33716;SDS011;20046;50.746;7.072;2023-03-05T21:42:14;28.95;;;14.93;;
33716;SDS011;20046;50.746;7.072;2023-03-05T21:44:40;24.60;;;14.05;;
33716;SDS011;20046;50.746;7.072;2023-03-05T21:47:06;26.95;;;14.50;;
33716;SDS011;20046;50.746;7.072;2023-03-05T21:49:31;29.58;;;14.90;;
33716;SDS011;20046;50.746;7.072;2023-03-05T21:51:57;25.33;;;14.13;;
33716;SDS011;20046;50.746;7.072;2023-03-05T21:54:34;27.45;;;15.02;;
33716;SDS011;20046;50.746;7.072;2023-03-05T21:57:00;27.30;;;14.63;;
33716;SDS011;20046;50.746;7.072;2023-03-05T21:59:26;24.38;;;13.95;;
33716;SDS011;20046;50.746;7.072;2023-03-05T22:01:52;26.10;;;15.27;;
33716;SDS011;20046;50.746;7.072;2023-03-05T22:04:18;26.45;;;14.13;;
33716;SDS011;20046;50.746;7.072;2023-03-05T22:06:43;27.67;;;14.20;;
33716;SDS011;20046;50.746;7.072;2023-03-05T22:09:09;29.13;;;15.00;;
33716;SDS011;20046;50.746;7.072;2023-03-05T22:11:35;26.38;;;14.85;;
33716;SDS011;20046;50.746;7.072;2023-03-05T22:14:00;29.17;;;15.07;;
33716;SDS011;20046;50.746;7.072;2023-03-05T22:16:26;29.27;;;14.77;;
33716;SDS011;20046;50.746;7.072;2023-03-05T22:18:52;26.88;;;14.88;;
33716;SDS011;20046;50.746;7.072;2023-03-05T22:21:22;29.40;;;14.90;;
33716;SDS011;20046;50.746;7.072;2023-03-05T22:23:50;26.95;;;15.20;;
33716;SDS011;20046;50.746;7.072;2023-03-05T22:26:18;28.75;;;15.25;;
33716;SDS011;20046;50.746;7.072;2023-03-05T22:28:43;28.70;;;15.25;;
33716;SDS011;20046;50.746;7.072;2023-03-05T22:31:09;27.17;;;15.40;;
33716;SDS011;20046;50.746;7.072;2023-03-05T22:33:35;30.88;;;15.30;;
33716;SDS011;20046;50.746;7.072;2023-03-05T22:36:07;28.30;;;15.70;;
33716;SDS011;20046;50.746;7.072;2023-03-05T22:38:34;25.20;;;14.07;;
33716;SDS011;20046;50.746;7.072;2023-03-05T22:41:00;28.05;;;15.60;;
33716;SDS011;20046;50.746;7.072;2023-03-05T22:43:25;34.65;;;16.17;;
33716;SDS011;20046;50.746;7.072;2023-03-05T22:45:51;32.40;;;16.10;;
33716;SDS011;20046;50.746;7.072;2023-03-05T22:48:17;26.98;;;15.57;;
33716;SDS011;20046;50.746;7.072;2023-03-05T22:50:42;34.17;;;16.25;;
33716;SDS011;20046;50.746;7.072;2023-03-05T22:53:08;29.98;;;15.75;;
33716;SDS011;20046;50.746;7.072;2023-03-05T22:55:36;31.23;;;16.95;;
33716;SDS011;20046;50.746;7.072;2023-03-05T22:58:04;31.67;;;16.45;;
33716;SDS011;20046;50.746;7.072;2023-03-05T23:00:29;31.80;;;15.93;;
33716;SDS011;20046;50.746;7.072;2023-03-05T23:02:55;29.98;;;15.88;;
33716;SDS011;20046;50.746;7.072;2023-03-05T23:05:20;30.55;;;17.00;;
33716;SDS011;20046;50.746;7.072;2023-03-05T23:07:46;30.52;;;15.95;;
33716;SDS011;20046;50.746;7.072;2023-03-05T23:10:14;28.88;;;16.17;;
33716;SDS011;20046;50.746;7.072;2023-03-05T23:12:45;29.27;;;16.45;;
33716;SDS011;20046;50.746;7.072;2023-03-05T23:15:18;28.70;;;15.52;;
33716;SDS011;20046;50.746;7.072;2023-03-05T23:17:46;30.27;;;15.87;;
33716;SDS011;20046;50.746;7.072;2023-03-05T23:20:12;27.85;;;15.57;;
33716;SDS011;20046;50.746;7.072;2023-03-05T23:22:42;28.85;;;15.73;;
33716;SDS011;20046;50.746;7.072;2023-03-05T23:25:09;36.83;;;17.48;;
33716;SDS011;20046;50.746;7.072;2023-03-05T23:27:36;28.38;;;15.32;;
33716;SDS011;20046;50.746;7.072;2023-03-05T23:35:56;29.98;;;15.50;;
33716;SDS011;20046;50.746;7.072;2023-03-05T23:38:24;27.33;;;15.07;;
33716;SDS011;20046;50.746;7.072;2023-03-05T23:40:51;29.17;;;15.77;;
33716;SDS011;20046;50.746;7.072;2023-03-05T23:43:18;31.17;;;15.82;;
33716;SDS011;20046;50.746;7.072;2023-03-05T23:45:48;32.28;;;16.42;;
33716;SDS011;20046;50.746;7.072;2023-03-05T23:48:17;30.67;;;14.73;;
33716;SDS011;20046;50.746;7.072;2023-03-05T23:50:43;27.58;;;14.93;;
33716;SDS011;20046;50.746;7.072;2023-03-05T23:53:14;25.02;;;13.90;;
33716;SDS011;20046;50.746;7.072;2023-03-05T23:55:44;23.63;;;12.93;;
33716;SDS011;20046;50.746;7.072;2023-03-05T23:58:11;20.00;;;11.10;;
